Time;durP1;ratioP1;P1;durP2;ratioP2;P2;SDS_P1;SDS_P2;PMS_P1;PMS_P2;Temp;Humidity;BMP_temperature;BMP_pressure;BME280_temperature;BME280_humidity;BME280_pressure;Samples;Min_cycle;Max_cycle;Signal;HPM_P1;HPM_P2
2022/03/20 00:00:38;;;;;;;15.90;9.33;;;8.40;98.60;;;;;;7385461;19;20645;-74
2022/03/20 00:03:09;;;;;;;16.63;9.80;;;8.30;98.50;;;;;;7384069;19;20166;-73
2022/03/20 00:05:40;;;;;;;14.67;8.97;;;8.30;98.70;;;;;;7389847;19;20131;-75
2022/03/20 00:08:11;;;;;;;15.27;9.17;;;8.30;98.60;;;;;;7388275;19;20873;-73
2022/03/20 00:10:38;;;;;;;13.93;9.23;;;8.40;98.50;;;;;;7389487;19;20135;-74
2022/03/20 00:13:07;;;;;;;15.23;10.03;;;8.30;98.50;;;;;;7382434;19;20130;-73
2022/03/20 00:15:32;;;;;;;14.33;9.23;;;8.20;98.60;;;;;;7385804;19;20164;-73
2022/03/20 00:17:58;;;;;;;11.93;8.50;;;8.10;99.00;;;;;;7383466;19;20588;-74
2022/03/20 00:20:24;;;;;;;12.27;9.00;;;8.20;99.00;;;;;;7385686;19;20162;-75
2022/03/20 00:22:50;;;;;;;14.93;8.60;;;8.10;98.50;;;;;;7383725;19;20131;-72
2022/03/20 00:25:16;;;;;;;14.37;9.20;;;8.00;98.30;;;;;;7386107;19;20123;-75
2022/03/20 00:27:42;;;;;;;14.90;9.13;;;8.10;98.50;;;;;;7383255;19;20158;-75
2022/03/20 00:30:08;;;;;;;13.30;8.53;;;8.20;98.30;;;;;;7388436;19;20818;-75
2022/03/20 00:32:34;;;;;;;14.57;8.60;;;8.30;98.50;;;;;;7385220;19;20202;-76
2022/03/20 00:35:00;;;;;;;13.50;8.63;;;8.30;98.50;;;;;;7391611;19;20151;-75
2022/03/20 00:37:27;;;;;;;14.23;8.43;;;8.40;98.30;;;;;;7389915;19;20126;-76
2022/03/20 00:39:53;;;;;;;12.40;8.27;;;8.20;98.50;;;;;;7390654;19;20135;-74
2022/03/20 00:42:19;;;;;;;13.43;8.93;;;8.20;98.50;;;;;;7390886;19;20130;-74
2022/03/20 00:44:45;;;;;;;13.73;9.37;;;8.20;98.30;;;;;;7394701;19;20155;-74
2022/03/20 00:47:11;;;;;;;12.77;8.57;;;8.20;98.50;;;;;;7390111;19;20184;-75
2022/03/20 00:49:37;;;;;;;13.73;9.20;;;8.20;98.70;;;;;;7394631;19;20135;-75
2022/03/20 00:52:04;;;;;;;13.13;8.50;;;8.20;98.50;;;;;;7395160;19;20135;-74
2022/03/20 00:54:30;;;;;;;12.00;8.50;;;8.20;98.30;;;;;;7390864;19;20146;-76
2022/03/20 00:56:56;;;;;;;14.37;9.17;;;8.20;98.30;;;;;;7389384;19;20130;-74
2022/03/20 00:59:21;;;;;;;15.47;8.53;;;8.10;98.20;;;;;;7392322;19;20142;-74
2022/03/20 01:01:47;;;;;;;14.53;8.53;;;8.20;98.20;;;;;;7390385;19;20149;-74
2022/03/20 01:04:13;;;;;;;15.53;9.43;;;8.10;98.30;;;;;;7394349;19;20821;-74
2022/03/20 01:06:39;;;;;;;12.77;8.67;;;8.10;98.50;;;;;;7389996;19;20130;-74
2022/03/20 01:09:05;;;;;;;13.70;9.13;;;7.90;98.50;;;;;;7389779;19;20131;-74
2022/03/20 01:11:32;;;;;;;12.87;8.80;;;7.90;98.80;;;;;;7390690;19;20127;-76
2022/03/20 01:13:59;;;;;;;13.73;9.00;;;8.00;98.60;;;;;;7388683;19;20218;-76
2022/03/20 01:16:26;;;;;;;14.27;8.80;;;7.90;98.60;;;;;;7395838;19;20139;-75
2022/03/20 01:18:51;;;;;;;14.43;8.93;;;8.00;98.90;;;;;;7391710;19;20138;-76
2022/03/20 01:21:17;;;;;;;13.90;8.90;;;7.90;98.30;;;;;;7391927;19;20163;-74
2022/03/20 01:23:43;;;;;;;9.97;7.30;;;7.90;98.70;;;;;;7390482;19;20618;-75
2022/03/20 01:26:12;;;;;;;13.13;8.77;;;8.00;98.50;;;;;;7388462;19;20156;-75
2022/03/20 01:28:38;;;;;;;13.37;8.37;;;7.50;98.70;;;;;;7388114;19;20166;-75
2022/03/20 01:31:04;;;;;;;14.27;8.67;;;7.50;99.20;;;;;;7387632;19;20267;-74
2022/03/20 01:33:30;;;;;;;12.20;8.83;;;7.70;99.20;;;;;;7388271;19;20168;-74
2022/03/20 01:35:55;;;;;;;12.93;8.53;;;7.80;99.00;;;;;;7388026;19;20162;-75
2022/03/20 01:38:21;;;;;;;14.23;8.53;;;8.00;98.90;;;;;;7389337;19;20130;-74
2022/03/20 01:40:48;;;;;;;14.77;9.10;;;8.00;98.60;;;;;;7392972;19;20130;-75
2022/03/20 01:43:14;;;;;;;12.43;8.60;;;8.10;98.30;;;;;;7390177;19;20728;-74
2022/03/20 01:45:40;;;;;;;13.00;8.43;;;7.80;98.50;;;;;;7390976;19;20130;-74
2022/03/20 01:48:05;;;;;;;14.30;8.93;;;7.90;98.70;;;;;;7390428;19;20123;-75
2022/03/20 01:50:34;;;;;;;15.50;8.83;;;8.00;98.80;;;;;;7390132;19;20131;-75
2022/03/20 01:53:00;;;;;;;13.43;8.83;;;7.90;98.50;;;;;;7387790;19;20143;-73
2022/03/20 01:55:28;;;;;;;13.33;8.87;;;7.80;98.60;;;;;;7389208;19;20131;-75
2022/03/20 01:57:56;;;;;;;13.40;9.17;;;7.80;99.00;;;;;;7389350;19;20123;-74
2022/03/20 02:00:24;;;;;;;11.57;8.57;;;7.90;98.80;;;;;;7391157;19;20133;-74
2022/03/20 02:02:53;;;;;;;14.40;8.97;;;7.90;98.90;;;;;;7389462;19;20126;-75
2022/03/20 02:05:19;;;;;;;14.30;8.60;;;8.10;98.70;;;;;;7392441;19;20208;-74
2022/03/20 02:07:47;;;;;;;12.33;8.97;;;8.10;98.30;;;;;;7387448;19;20582;-73
2022/03/20 02:10:13;;;;;;;16.00;8.90;;;8.00;98.40;;;;;;7388275;19;20152;-75
2022/03/20 02:12:40;;;;;;;12.37;8.50;;;8.00;98.90;;;;;;7386416;19;20131;-73
2022/03/20 02:15:12;;;;;;;13.57;8.87;;;8.10;98.70;;;;;;7389059;19;20127;-75
2022/03/20 02:17:43;;;;;;;16.73;9.80;;;8.20;98.50;;;;;;7386683;19;20733;-74
2022/03/20 02:20:10;;;;;;;14.63;9.37;;;8.10;98.50;;;;;;7387978;19;20486;-74
2022/03/20 02:22:42;;;;;;;16.53;9.23;;;8.10;98.70;;;;;;7388252;19;20135;-75
2022/03/20 02:25:10;;;;;;;14.33;9.00;;;8.00;98.90;;;;;;7395370;19;20142;-74
2022/03/20 02:27:39;;;;;;;14.03;9.43;;;8.00;98.90;;;;;;7388178;19;20142;-73
2022/03/20 02:30:12;;;;;;;14.33;9.17;;;8.00;98.70;;;;;;7388562;19;20127;-74
2022/03/20 02:32:43;;;;;;;12.80;8.33;;;8.00;98.70;;;;;;7387109;19;20484;-74
2022/03/20 02:35:12;;;;;;;14.00;9.50;;;8.00;97.90;;;;;;7390599;19;20177;-74
2022/03/20 02:37:45;;;;;;;13.03;8.97;;;7.80;98.10;;;;;;7390210;19;20725;-74
2022/03/20 02:40:12;;;;;;;13.90;8.43;;;7.80;98.40;;;;;;7389351;19;20141;-74
2022/03/20 02:42:40;;;;;;;14.27;9.13;;;8.00;98.10;;;;;;7391757;19;20598;-73
2022/03/20 02:45:14;;;;;;;15.13;9.23;;;8.00;98.20;;;;;;7390804;19;20198;-75
2022/03/20 02:47:45;;;;;;;15.87;9.23;;;8.00;98.60;;;;;;7385710;19;20616;-75
2022/03/20 02:50:21;;;;;;;15.03;9.17;;;8.00;99.60;;;;;;7390549;19;20139;-73
2022/03/20 02:52:52;;;;;;;14.77;8.73;;;8.00;99.80;;;;;;7386071;19;20130;-76
2022/03/20 02:55:24;;;;;;;13.80;8.50;;;7.90;99.90;;;;;;7385717;19;20485;-75
2022/03/20 02:57:51;;;;;;;13.23;9.10;;;7.80;99.90;;;;;;7385596;19;20142;-74
2022/03/20 03:00:21;;;;;;;15.37;9.33;;;7.90;99.90;;;;;;7388124;19;20142;-75
2022/03/20 03:02:49;;;;;;;16.27;8.80;;;7.80;99.90;;;;;;7387810;19;20137;-74
2022/03/20 03:05:18;;;;;;;12.43;7.90;;;7.80;99.90;;;;;;7394969;19;20148;-74
2022/03/20 03:13:16;;;;;;;13.13;8.57;;;7.90;99.90;;;;;;7386134;19;20134;-75
2022/03/20 03:15:42;;;;;;;14.53;9.27;;;7.90;99.90;;;;;;7385377;19;20119;-74
2022/03/20 03:18:09;;;;;;;16.00;9.30;;;7.90;99.90;;;;;;7385233;19;20345;-75
2022/03/20 03:20:35;;;;;;;13.23;8.90;;;7.90;99.90;;;;;;7385689;19;20186;-73
2022/03/20 03:23:02;;;;;;;12.17;7.87;;;7.90;99.90;;;;;;7386860;19;20166;-74
2022/03/20 03:25:28;;;;;;;16.60;9.27;;;7.90;99.90;;;;;;7389175;19;20127;-75
2022/03/20 03:27:54;;;;;;;13.03;9.03;;;7.80;99.90;;;;;;7386460;19;20184;-75
2022/03/20 03:30:20;;;;;;;14.33;8.87;;;7.80;99.90;;;;;;7387593;19;20146;-73
2022/03/20 03:32:46;;;;;;;13.53;8.47;;;7.80;99.90;;;;;;7388096;19;20161;-75
2022/03/20 03:38:01;;;;;;;15.37;8.53;;;7.80;99.90;;;;;;7385046;19;20131;-75
2022/03/20 03:40:27;;;;;;;14.07;8.93;;;7.90;99.90;;;;;;7384481;19;20161;-74
2022/03/20 03:42:53;;;;;;;13.93;8.53;;;7.90;99.90;;;;;;7383719;19;20531;-75
2022/03/20 03:45:21;;;;;;;15.33;9.13;;;7.90;99.90;;;;;;7388243;19;20141;-74
2022/03/20 03:47:47;;;;;;;13.43;8.90;;;8.00;99.90;;;;;;7390324;19;20133;-74
2022/03/20 03:50:13;;;;;;;13.83;9.17;;;8.00;99.90;;;;;;7383566;19;20119;-75
2022/03/20 03:52:39;;;;;;;16.23;8.83;;;8.00;99.90;;;;;;7384177;19;20139;-74
2022/03/20 03:55:06;;;;;;;15.20;9.23;;;7.90;99.90;;;;;;7383540;19;20131;-75
2022/03/20 03:57:32;;;;;;;12.33;8.80;;;7.90;99.90;;;;;;7383998;19;20155;-75
2022/03/20 03:59:58;;;;;;;16.03;9.17;;;7.90;99.90;;;;;;7384680;19;20134;-74
2022/03/20 04:02:24;;;;;;;14.67;8.90;;;8.00;99.90;;;;;;7384937;19;20142;-75
2022/03/20 04:04:50;;;;;;;12.40;8.63;;;7.90;99.90;;;;;;7387566;19;20699;-74
2022/03/20 04:07:21;;;;;;;13.73;8.17;;;8.00;99.90;;;;;;7385753;19;20138;-75
2022/03/20 04:09:48;;;;;;;14.83;9.47;;;8.00;99.90;;;;;;7393340;19;20169;-75
2022/03/20 04:12:14;;;;;;;12.10;8.53;;;7.90;99.90;;;;;;7388511;19;20186;-74
2022/03/20 04:14:41;;;;;;;17.13;9.37;;;7.90;99.90;;;;;;7389290;19;20143;-75
2022/03/20 04:17:07;;;;;;;14.23;8.57;;;8.00;99.90;;;;;;7388142;19;20142;-74
2022/03/20 04:19:33;;;;;;;13.47;8.37;;;7.90;99.90;;;;;;7388911;19;20126;-74
2022/03/20 04:22:03;;;;;;;17.03;10.10;;;7.90;99.90;;;;;;7388956;19;20134;-74
2022/03/20 04:24:29;;;;;;;15.77;9.53;;;8.10;99.70;;;;;;7393568;19;20611;-74
2022/03/20 04:26:55;;;;;;;15.07;8.87;;;8.10;99.70;;;;;;7390438;19;20127;-74
2022/03/20 04:29:21;;;;;;;14.43;9.13;;;8.10;99.30;;;;;;7386884;19;20142;-74
2022/03/20 04:31:50;;;;;;;15.70;10.37;;;8.10;99.30;;;;;;7242022;19;2890609;-75
2022/03/20 04:34:16;;;;;;;13.73;9.40;;;7.90;99.50;;;;;;7390528;19;20226;-75
2022/03/20 04:36:42;;;;;;;15.87;9.57;;;7.90;99.70;;;;;;7391475;19;20158;-74
2022/03/20 04:39:08;;;;;;;15.37;9.50;;;7.90;99.80;;;;;;7397588;19;20139;-75
2022/03/20 04:41:35;;;;;;;13.73;9.13;;;7.90;99.90;;;;;;7396518;19;20174;-75
2022/03/20 04:44:01;;;;;;;17.90;10.63;;;7.90;99.90;;;;;;7390721;19;20860;-76
2022/03/20 04:46:27;;;;;;;15.50;9.30;;;8.10;99.90;;;;;;7394960;19;20135;-74
2022/03/20 04:59:50;;;;;;;14.53;9.43;;;7.80;99.90;;;;;;7390837;19;20830;-74
2022/03/20 05:02:18;;;;;;;13.87;9.90;;;7.70;99.90;;;;;;7390959;19;20160;-74
2022/03/20 05:04:44;;;;;;;14.17;10.00;;;7.70;99.90;;;;;;7390347;19;20249;-75
2022/03/20 05:07:10;;;;;;;16.07;10.40;;;7.80;99.90;;;;;;7391637;19;20138;-75
2022/03/20 05:15:09;;;;;;;19.43;10.87;;;8.00;99.30;;;;;;7392440;19;20508;-75
2022/03/20 05:17:35;;;;;;;18.57;11.03;;;8.10;99.20;;;;;;7391531;19;20497;-77
2022/03/20 05:20:04;;;;;;;18.00;11.10;;;8.00;99.20;;;;;;7389965;19;20214;-75
2022/03/20 05:22:32;;;;;;;19.87;12.07;;;8.10;99.00;;;;;;7390401;19;20206;-75
2022/03/20 05:24:59;;;;;;;18.17;10.70;;;8.20;98.90;;;;;;7391921;19;20131;-74
2022/03/20 05:27:24;;;;;;;17.40;10.63;;;8.00;99.10;;;;;;7390410;19;20142;-75
2022/03/20 05:29:53;;;;;;;18.00;10.87;;;8.00;98.80;;;;;;7390555;19;20139;-74
2022/03/20 05:32:20;;;;;;;15.30;10.77;;;8.10;98.70;;;;;;7386791;19;20198;-74
2022/03/20 05:34:46;;;;;;;19.53;10.73;;;7.90;99.20;;;;;;7389577;19;20677;-76
2022/03/20 05:37:15;;;;;;;16.43;11.13;;;8.10;99.10;;;;;;7390068;19;20150;-75
2022/03/20 05:39:40;;;;;;;15.43;10.57;;;8.20;99.40;;;;;;7389815;19;20137;-76
2022/03/20 05:42:06;;;;;;;18.27;10.97;;;8.40;99.10;;;;;;7395544;19;20131;-75
2022/03/20 05:44:35;;;;;;;17.80;11.33;;;8.50;98.80;;;;;;7388872;19;20217;-74
2022/03/20 05:47:01;;;;;;;15.87;10.73;;;8.50;98.90;;;;;;7391415;19;20141;-76
2022/03/20 05:49:28;;;;;;;15.23;10.90;;;8.50;98.90;;;;;;7392482;19;20151;-75
2022/03/20 05:51:57;;;;;;;15.43;10.13;;;8.50;98.90;;;;;;7388703;19;20148;-75
2022/03/20 05:54:23;;;;;;;15.17;10.87;;;8.60;98.70;;;;;;7388710;19;20134;-75
2022/03/20 05:59:36;;;;;;;16.07;10.67;;;8.60;98.90;;;;;;7390394;19;20583;-74
2022/03/20 06:02:03;;;;;;;15.70;10.37;;;8.70;98.40;;;;;;7390640;19;20267;-75
2022/03/20 06:04:30;;;;;;;17.50;10.90;;;8.50;98.60;;;;;;7389027;19;20138;-74
2022/03/20 06:06:58;;;;;;;15.93;10.27;;;8.20;99.00;;;;;;7389904;19;20131;-73
2022/03/20 06:09:24;;;;;;;17.13;11.23;;;8.50;99.00;;;;;;7396415;19;20133;-74
2022/03/20 06:11:51;;;;;;;17.90;11.30;;;8.70;98.50;;;;;;7391419;19;20655;-74
2022/03/20 06:14:17;;;;;;;19.27;11.53;;;8.60;98.50;;;;;;7386009;19;20139;-77
2022/03/20 06:16:47;;;;;;;18.53;11.70;;;8.70;98.30;;;;;;7387789;19;20142;-76
2022/03/20 06:19:17;;;;;;;16.50;11.20;;;8.70;98.20;;;;;;7387810;19;20133;-74
2022/03/20 06:21:44;;;;;;;18.73;11.60;;;8.80;98.30;;;;;;7388226;19;20131;-74
2022/03/20 06:24:10;;;;;;;16.27;10.63;;;8.80;98.30;;;;;;7387778;19;20198;-75
2022/03/20 06:26:37;;;;;;;17.03;10.20;;;8.90;98.50;;;;;;7387023;19;20143;-74
2022/03/20 06:29:05;;;;;;;16.97;11.03;;;8.80;98.60;;;;;;7387960;19;20143;-75
2022/03/20 06:31:31;;;;;;;16.70;10.83;;;8.90;98.30;;;;;;7387747;19;20162;-74
2022/03/20 06:34:00;;;;;;;16.27;11.07;;;8.90;98.30;;;;;;7386056;19;20143;-74
2022/03/20 06:36:27;;;;;;;16.30;11.37;;;8.90;98.40;;;;;;7386076;19;20630;-75
2022/03/20 06:38:56;;;;;;;16.47;11.60;;;8.90;98.30;;;;;;7392047;19;20590;-75
2022/03/20 06:41:22;;;;;;;16.90;11.60;;;9.00;98.60;;;;;;7390442;19;20612;-75
2022/03/20 06:43:50;;;;;;;16.00;11.17;;;9.10;98.10;;;;;;7387221;19;20300;-74
2022/03/20 06:46:16;;;;;;;14.80;10.47;;;9.10;98.10;;;;;;7388147;19;20135;-75
2022/03/20 06:48:42;;;;;;;16.63;10.97;;;9.20;98.10;;;;;;7389691;19;20134;-75
2022/03/20 06:51:07;;;;;;;17.57;11.47;;;9.30;98.00;;;;;;7386844;19;20559;-75
2022/03/20 06:53:34;;;;;;;22.80;11.57;;;9.10;98.30;;;;;;7385301;19;20127;-74
2022/03/20 06:56:03;;;;;;;15.67;11.13;;;9.20;98.00;;;;;;7388408;19;20682;-74
2022/03/20 06:58:29;;;;;;;17.03;10.87;;;9.30;98.10;;;;;;7387293;19;20591;-75
2022/03/20 07:00:57;;;;;;;19.87;11.60;;;9.30;98.20;;;;;;7391363;19;20138;-75
2022/03/20 07:03:23;;;;;;;19.80;12.07;;;9.30;98.30;;;;;;7390404;19;20135;-75
2022/03/20 07:05:49;;;;;;;22.23;12.87;;;9.40;98.60;;;;;;7388973;19;20130;-75
2022/03/20 07:08:14;;;;;;;18.00;12.27;;;9.30;98.30;;;;;;7394764;19;20606;-74
2022/03/20 07:10:42;;;;;;;17.53;11.43;;;9.30;98.00;;;;;;7389421;19;20163;-74
2022/03/20 07:15:56;;;;;;;17.73;10.87;;;8.90;98.20;;;;;;7391404;19;20142;-74
2022/03/20 07:18:23;;;;;;;18.07;11.50;;;9.20;98.50;;;;;;7389117;19;20662;-75
2022/03/20 07:20:49;;;;;;;19.23;11.90;;;9.30;98.30;;;;;;7390478;19;20216;-75
2022/03/20 07:23:15;;;;;;;17.87;11.63;;;9.50;98.00;;;;;;7389974;19;20586;-74
2022/03/20 07:31:14;;;;;;;17.30;11.67;;;9.60;98.30;;;;;;7388827;19;20582;-75
2022/03/20 07:33:40;;;;;;;20.57;11.97;;;9.70;98.10;;;;;;7388146;19;20456;-75
2022/03/20 07:36:07;;;;;;;20.17;12.37;;;9.80;98.00;;;;;;7388646;19;20198;-75
2022/03/20 07:38:35;;;;;;;19.57;12.50;;;9.80;98.10;;;;;;7388086;19;20488;-76
2022/03/20 07:41:00;;;;;;;21.13;12.00;;;9.70;97.90;;;;;;7388529;19;20142;-76
2022/03/20 07:43:27;;;;;;;19.23;12.03;;;9.90;98.00;;;;;;7390146;19;20134;-76
2022/03/20 07:45:53;;;;;;;19.97;12.70;;;9.90;97.80;;;;;;7389101;19;20672;-76
2022/03/20 07:48:23;;;;;;;19.60;12.37;;;9.90;97.80;;;;;;7400144;19;20138;-75
2022/03/20 07:50:50;;;;;;;19.57;12.53;;;9.90;97.80;;;;;;7391341;19;20135;-75
2022/03/20 07:53:17;;;;;;;19.47;12.60;;;10.10;98.00;;;;;;7387044;19;20213;-75
2022/03/20 07:55:44;;;;;;;19.17;12.40;;;10.20;97.40;;;;;;7388197;19;20131;-75
2022/03/20 07:58:10;;;;;;;19.77;12.60;;;9.90;97.80;;;;;;7385740;19;20186;-75
2022/03/20 08:00:39;;;;;;;20.08;14.02;;;10.10;98.10;;;;;;7384611;19;20723;-75
2022/03/20 08:03:07;;;;;;;17.27;12.07;;;10.20;98.00;;;;;;7388374;19;20130;-76
2022/03/20 08:05:33;;;;;;;18.57;12.63;;;10.10;97.70;;;;;;7386623;19;20141;-76
2022/03/20 08:08:02;;;;;;;22.40;12.47;;;10.30;97.80;;;;;;7383811;19;20135;-75
2022/03/20 08:10:28;;;;;;;19.97;12.70;;;10.50;97.50;;;;;;7393350;19;20138;-75
2022/03/20 08:12:54;;;;;;;21.52;14.88;;;10.70;96.80;;;;;;7383290;19;20395;-77
2022/03/20 08:15:20;;;;;;;18.70;12.27;;;10.70;97.20;;;;;;7386236;19;20140;-76
2022/03/20 08:17:48;;;;;;;20.57;12.77;;;10.60;97.30;;;;;;7384229;19;20155;-76
2022/03/20 08:20:14;;;;;;;22.67;13.77;;;10.70;97.20;;;;;;7386041;19;20118;-77
2022/03/20 08:22:40;;;;;;;28.87;13.83;;;10.80;96.80;;;;;;7385217;19;20131;-76
2022/03/20 08:25:07;;;;;;;20.13;13.07;;;10.90;97.00;;;;;;7386257;19;20164;-76
2022/03/20 08:27:47;;;;;;;21.90;13.50;;;10.90;96.70;;;;;;7383162;19;20154;-75
2022/03/20 08:30:17;;;;;;;21.30;13.27;;;11.00;97.00;;;;;;7385287;19;20223;-77
2022/03/20 08:32:46;;;;;;;22.57;13.33;;;11.00;97.10;;;;;;7390964;19;20525;-76
2022/03/20 08:35:15;;;;;;;20.30;12.53;;;11.20;97.10;;;;;;7386907;19;20690;-75
2022/03/20 08:37:43;;;;;;;20.80;13.70;;;11.30;97.00;;;;;;7383558;19;20261;-75
2022/03/20 08:40:15;;;;;;;19.63;13.20;;;11.40;96.80;;;;;;7384613;19;20139;-76
2022/03/20 08:42:48;;;;;;;22.40;12.40;;;11.50;96.70;;;;;;7385332;19;20156;-76
2022/03/20 08:45:15;;;;;;;18.67;12.77;;;11.60;96.40;;;;;;7383165;19;20123;-75
2022/03/20 08:47:43;;;;;;;18.77;12.90;;;11.70;96.30;;;;;;7384131;19;20813;-74
2022/03/20 08:50:10;;;;;;;23.00;13.23;;;11.80;96.00;;;;;;7383073;19;20127;-76
2022/03/20 08:52:36;;;;;;;17.47;12.27;;;12.00;95.90;;;;;;7385442;19;20137;-75
2022/03/20 08:55:09;;;;;;;18.17;12.20;;;12.10;96.30;;;;;;7393055;19;20552;-79
2022/03/20 08:57:54;;;;;;;20.37;13.20;;;12.20;95.90;;;;;;7393106;19;20130;-75
2022/03/20 09:00:24;;;;;;;19.57;12.50;;;12.40;95.70;;;;;;7390122;19;20138;-75
2022/03/20 09:02:52;;;;;;;18.10;12.20;;;12.60;95.70;;;;;;7392826;19;20138;-76
2022/03/20 09:05:19;;;;;;;20.17;12.90;;;12.70;95.10;;;;;;7389803;19;20134;-74
2022/03/20 09:07:47;;;;;;;18.37;12.47;;;12.90;95.10;;;;;;7392538;19;20135;-74
2022/03/20 09:10:14;;;;;;;20.50;12.83;;;13.00;94.30;;;;;;7392639;19;20154;-76
2022/03/20 09:12:42;;;;;;;20.00;12.37;;;13.00;94.00;;;;;;7393450;19;20163;-75
2022/03/20 09:15:12;;;;;;;17.60;11.80;;;12.90;94.20;;;;;;7398481;19;20770;-73
2022/03/20 09:20:23;;;;;;;17.67;12.37;;;13.10;94.40;;;;;;7392807;19;20135;-75
2022/03/20 09:22:49;;;;;;;20.10;12.50;;;13.30;94.10;;;;;;7394396;19;20130;-74
2022/03/20 09:25:15;;;;;;;18.90;12.20;;;13.30;93.80;;;;;;7392314;19;20138;-76
2022/03/20 09:27:41;;;;;;;16.97;12.13;;;13.20;93.70;;;;;;7393031;19;20157;-75
2022/03/20 09:30:09;;;;;;;17.00;11.20;;;13.10;94.30;;;;;;7393942;19;20134;-76
2022/03/20 09:32:34;;;;;;;18.23;11.73;;;13.10;94.10;;;;;;7395398;19;20131;-80
2022/03/20 09:35:00;;;;;;;19.87;12.13;;;13.40;94.30;;;;;;7400275;19;20123;-76
2022/03/20 09:37:26;;;;;;;17.73;12.77;;;13.50;93.60;;;;;;7391504;19;20160;-77
2022/03/20 09:39:52;;;;;;;18.60;11.80;;;13.70;93.60;;;;;;7390548;19;20206;-77
2022/03/20 09:42:19;;;;;;;18.33;12.20;;;13.70;93.30;;;;;;7390397;19;20127;-77
2022/03/20 09:44:45;;;;;;;17.03;12.03;;;13.50;93.70;;;;;;7388119;19;20154;-75
2022/03/20 09:47:12;;;;;;;18.27;12.33;;;13.50;93.70;;;;;;7390623;19;20553;-78
2022/03/20 09:49:39;;;;;;;20.47;12.83;;;13.50;93.70;;;;;;7388768;19;20585;-77
2022/03/20 09:52:09;;;;;;;17.73;11.90;;;13.60;93.60;;;;;;7391030;19;20138;-77
2022/03/20 09:54:35;;;;;;;19.10;12.17;;;13.50;93.90;;;;;;7392071;19;20138;-78
2022/03/20 09:57:09;;;;;;;22.03;12.40;;;13.60;93.60;;;;;;7395913;19;20483;-79
2022/03/20 09:59:38;;;;;;;16.87;11.47;;;13.70;93.60;;;;;;7394550;19;20133;-79
2022/03/20 10:02:07;;;;;;;18.20;12.30;;;13.70;93.20;;;;;;7389648;19;20542;-77
2022/03/20 10:04:51;;;;;;;17.33;12.13;;;13.90;93.10;;;;;;7392387;19;20165;-79
2022/03/20 10:07:26;;;;;;;17.80;11.67;;;14.00;93.30;;;;;;7387589;19;20130;-80
2022/03/20 10:10:22;;;;;;;15.10;10.77;;;14.30;93.40;;;;;;7393475;19;20133;-80
2022/03/20 10:12:52;;;;;;;14.97;9.57;;;14.80;93.40;;;;;;7393871;19;20139;-80
2022/03/20 10:15:35;;;;;;;12.52;9.18;;;15.20;93.30;;;;;;7396570;19;20165;-80
2022/03/20 10:18:18;;;;;;;13.80;9.23;;;15.60;92.70;;;;;;7392119;19;20480;-79
2022/03/20 10:20:58;;;;;;;15.52;9.35;;;15.90;92.70;;;;;;7394828;19;20130;-80
2022/03/20 10:23:32;;;;;;;14.32;8.98;;;16.20;92.50;;;;;;7392980;19;20141;-80
2022/03/20 10:26:10;;;;;;;13.45;9.30;;;16.10;92.60;;;;;;7389453;19;20159;-80
2022/03/20 10:28:44;;;;;;;14.25;9.30;;;15.90;92.90;;;;;;7392058;19;20142;-78
2022/03/20 10:31:15;;;;;;;11.82;8.75;;;15.90;92.90;;;;;;7389567;19;20629;-79
2022/03/20 10:33:43;;;;;;;15.85;9.68;;;15.90;93.00;;;;;;7391835;19;20131;-80
2022/03/20 10:36:23;;;;;;;12.45;8.50;;;15.60;93.20;;;;;;7393938;19;20501;-80
2022/03/20 10:38:49;;;;;;;18.33;10.40;;;15.30;93.40;;;;;;7397362;19;20138;-79
2022/03/20 10:41:26;;;;;;;12.93;9.15;;;15.40;93.50;;;;;;7392244;19;20134;-78
2022/03/20 10:43:53;;;;;;;15.35;10.27;;;15.30;93.90;;;;;;7391073;19;20134;-79
2022/03/20 10:46:25;;;;;;;15.60;9.23;;;15.00;93.80;;;;;;7393060;19;20239;-77
2022/03/20 10:48:55;;;;;;;12.75;8.80;;;15.00;93.80;;;;;;7395320;19;20131;-78
2022/03/20 10:51:37;;;;;;;13.57;9.00;;;15.10;94.00;;;;;;7390223;19;20244;-79
2022/03/20 10:54:08;;;;;;;12.40;8.77;;;15.20;94.00;;;;;;7394731;19;20138;-78
2022/03/20 10:56:35;;;;;;;12.82;9.73;;;15.20;94.10;;;;;;7391590;19;20135;-77
2022/03/20 10:59:15;;;;;;;14.55;9.85;;;15.40;93.80;;;;;;7398603;19;20142;-79
2022/03/20 11:01:43;;;;;;;11.52;8.40;;;15.20;93.80;;;;;;7393160;19;20169;-77
2022/03/20 11:04:11;;;;;;;14.45;9.00;;;15.20;93.80;;;;;;7394795;19;20130;-79
2022/03/20 11:06:40;;;;;;;12.70;8.20;;;15.20;94.00;;;;;;7392996;19;20598;-78
2022/03/20 11:09:05;;;;;;;11.63;8.45;;;15.40;93.70;;;;;;7390279;19;20218;-79
2022/03/20 11:11:37;;;;;;;12.32;8.55;;;15.40;93.60;;;;;;7389555;19;20652;-75
2022/03/20 11:14:04;;;;;;;15.13;8.98;;;15.60;93.90;;;;;;7388548;19;20166;-76
2022/03/20 11:16:35;;;;;;;13.80;9.00;;;15.70;93.80;;;;;;7388815;19;20135;-74
2022/03/20 11:19:07;;;;;;;11.77;8.45;;;15.70;93.30;;;;;;7387593;19;20139;-74
2022/03/20 11:21:36;;;;;;;12.23;8.48;;;15.80;93.10;;;;;;7392009;19;20593;-77
2022/03/20 11:24:03;;;;;;;12.65;8.60;;;15.70;93.70;;;;;;7394105;19;20142;-77
2022/03/20 11:26:31;;;;;;;11.50;8.48;;;15.70;93.30;;;;;;7388010;19;20210;-77
2022/03/20 11:29:04;;;;;;;11.70;8.75;;;15.80;93.30;;;;;;7385859;19;20150;-79
2022/03/20 11:31:35;;;;;;;12.05;8.25;;;16.00;93.20;;;;;;7385524;19;20146;-76
2022/03/20 11:34:03;;;;;;;12.25;8.57;;;16.20;92.50;;;;;;7387087;19;20149;-77
2022/03/20 11:36:29;;;;;;;14.95;8.38;;;16.20;92.50;;;;;;7387584;19;20159;-75
2022/03/20 11:39:10;;;;;;;13.07;8.15;;;16.30;92.20;;;;;;7389161;19;20127;-79
2022/03/20 11:41:38;;;;;;;12.05;8.02;;;16.10;92.70;;;;;;7385751;19;20145;-75
2022/03/20 11:44:20;;;;;;;10.73;7.78;;;16.10;92.80;;;;;;7388371;19;20129;-76
2022/03/20 11:47:14;;;;;;;9.82;7.35;;;16.10;92.00;;;;;;7388865;19;20138;-76
2022/03/20 11:49:40;;;;;;;14.18;9.10;;;16.30;92.50;;;;;;7384989;19;20130;-76
2022/03/20 11:52:15;;;;;;;13.80;8.27;;;16.50;92.00;;;;;;7383678;19;21529;-76
2022/03/20 11:54:41;;;;;;;13.70;7.72;;;16.50;92.00;;;;;;7387156;19;20598;-76
2022/03/20 11:57:29;;;;;;;13.32;8.68;;;16.50;91.80;;;;;;7385158;19;20151;-78
2022/03/20 12:00:10;;;;;;;12.23;8.02;;;16.70;91.90;;;;;;7386473;19;20142;-78
2022/03/20 12:02:36;;;;;;;11.73;8.32;;;16.90;91.50;;;;;;7387996;19;20227;-77
2022/03/20 12:05:20;;;;;;;13.75;8.73;;;16.80;91.40;;;;;;7390124;19;20160;-79
2022/03/20 12:08:14;;;;;;;10.93;7.90;;;16.70;91.60;;;;;;7393033;19;20139;-75
2022/03/20 12:10:53;;;;;;;13.75;8.95;;;16.60;91.80;;;;;;7388882;19;20135;-76
2022/03/20 12:13:31;;;;;;;12.48;8.15;;;16.60;91.60;;;;;;7388841;19;20126;-79
2022/03/20 12:15:57;;;;;;;12.30;7.80;;;16.50;91.80;;;;;;7388162;19;20142;-79
2022/03/20 12:18:24;;;;;;;14.27;8.10;;;16.40;91.80;;;;;;7385860;19;20486;-78
2022/03/20 12:21:02;;;;;;;14.95;7.70;;;16.50;92.00;;;;;;7387707;19;20127;-80
2022/03/20 12:23:43;;;;;;;13.10;7.65;;;16.60;91.60;;;;;;7387135;19;20135;-75
2022/03/20 12:26:34;;;;;;;10.70;7.53;;;16.90;91.30;;;;;;7387928;19;20135;-78
2022/03/20 12:29:38;;;;;;;10.38;7.28;;;17.10;90.70;;;;;;7389707;19;20146;-76
2022/03/20 12:32:12;;;;;;;12.27;7.50;;;17.10;90.90;;;;;;7390299;19;20191;-76
2022/03/20 12:35:06;;;;;;;9.30;6.95;;;17.10;90.40;;;;;;7390000;19;20194;-75
2022/03/20 12:37:33;;;;;;;10.80;6.88;;;17.00;90.60;;;;;;7393288;19;20135;-75
2022/03/20 12:40:14;;;;;;;11.05;7.53;;;17.20;90.40;;;;;;7396842;19;20131;-76
2022/03/20 12:42:54;;;;;;;11.07;6.80;;;17.20;90.00;;;;;;7396685;19;20139;-75
2022/03/20 12:45:20;;;;;;;12.00;7.05;;;17.00;90.10;;;;;;7394052;19;20137;-75
2022/03/20 12:48:13;;;;;;;12.98;6.82;;;16.80;90.60;;;;;;7393462;19;20502;-76
2022/03/20 12:51:01;;;;;;;11.20;6.63;;;16.70;90.20;;;;;;7393547;19;20138;-77
2022/03/20 12:53:38;;;;;;;10.60;7.38;;;16.60;90.10;;;;;;7394605;19;20175;-75
2022/03/20 12:56:09;;;;;;;10.95;6.85;;;16.70;90.10;;;;;;7387001;19;20466;-77
2022/03/20 12:58:35;;;;;;;10.07;7.10;;;16.70;90.30;;;;;;7392981;19;20130;-76
2022/03/20 13:01:08;;;;;;;11.02;6.70;;;17.00;89.70;;;;;;7390250;19;20226;-78
2022/03/20 13:03:34;;;;;;;10.10;6.97;;;17.10;89.00;;;;;;7395268;19;20189;-75
2022/03/20 13:06:01;;;;;;;13.43;6.53;;;17.20;88.50;;;;;;7390085;19;20138;-76
2022/03/20 13:08:44;;;;;;;11.43;6.63;;;17.40;88.50;;;;;;7392220;19;20138;-76
2022/03/20 13:14:05;;;;;;;8.52;6.30;;;17.20;86.60;;;;;;7391416;19;20129;-79
2022/03/20 13:16:34;;;;;;;7.55;5.47;;;17.20;85.60;;;;;;7390328;19;20443;-75
2022/03/20 13:19:00;;;;;;;15.25;6.40;;;17.00;87.40;;;;;;7392927;19;20151;-75
2022/03/20 13:21:26;;;;;;;9.02;5.80;;;17.10;86.90;;;;;;7389242;19;20218;-76
2022/03/20 13:23:53;;;;;;;10.27;6.53;;;17.30;85.00;;;;;;7390342;19;20210;-75
2022/03/20 13:26:21;;;;;;;10.75;5.60;;;17.30;84.70;;;;;;7393208;19;20142;-76
2022/03/20 13:28:48;;;;;;;11.70;6.55;;;17.40;84.80;;;;;;7390129;19;20154;-76